Main page
METAR-TAF:

METAR-TAF

Airports :

Bamako–Modibo Keïta International Airport

Bamako, Mali

latitude: 12-32N, longitude: 007-57W, elevation: 380 m

Current weather observation

The report was made 32 minutes ago, at 23:00 UTC
Wind 4 kt from the North/Northeast
Temperature 21°C
Humidity 23%
Pressure 1015 hPa
Visibility: 8000 m

METAR: GABS 232300Z 03004KT 8000 NSC 21/M01 Q1015 NOSIG

Time: 23:32 (23:32 UTC)

Forecast

The report was made 32 minutes ago, at 23:00 UTC
Forecast valid from 24 at 00 UTC to 25 at 06 UTC
Wind 6 kt from the North
Visibility: 8000 m
Temporary
from 24 at 06 UTC to 24 at 10 UTC
Visibility: 4000 m
widespread dust,

TAF: GABS 232300Z 2400/2506 01006KT 8000 NSC TEMPO 2406/2410 4000 DU

Weather observations and forecasts of more than 4000 airports (METAR and TAF reports).

The available stations are represented by yellow and red dots on the map.

Hover mouse over dot to see the name of the station.

Then click to see weather observations and forecasts.

To change the map : click on the green buttons with a black cross to zoom in, on the green button with a dash to zoom out, or on the green arrows for adjacent maps.


METAR-TAF: